Airways and Terminal Forecast

Significant Meteorological Information
Terminal Aerodrome Forecast

TAF RPLL

231100Z 2312/2418 11008KT 9999 FEW025 TX34/2406Z TN26/2321Z TEMPO 2312/2318 12012KT FEW023 BKN100 TEMPO 2400/2406 14014KT SCT025=

TAF RPVM

231100Z 2312/2418 04008KT 9999 FEW020 TEMPO 2312/2318 06012KT 9000 −SHRA SCT020 BKN090 TEMPO 2318/2324 05010KT=

TAF RPLC

231100Z 2312/2418 34007KT 9999 FEW020 BKN300 TX35/2406Z TN25/2322Z TEMPO 2312/2318 36006KT SCT020 BKN300=

TAF RPLB

231100Z 2312/2412 04004KT 9999 FEW025 SCT300 TX34/2406Z TN23/2322Z TEMPO 2312/2318 06007KT SCT025 BKN080=

TAF RPLI

231100Z 2312/2412 02010KT 9999 FEW018 TEMPO 2312/2318 04014G24KT FEW018 SCT290=

TAF RPVP

231100Z 2312/2412 09008KT 9999 FEW019 TEMPO 2318/2324 29006KT TEMPO 2400/2406 09014KT=

TAF RPVD

231100Z 2312/2412 06008KT 9999 FEW015 TEMPO 2315/2321 36004KT TEMPO 2400/2406 04010KT SCT015=

TAF RPMR

231100Z 2312/2412 04008KT 9999 FEW018 SCT080 TEMPO 2312/2318 30004KT 9000 −SHRA SCT018 BKN080=

TAF RPMD

231100Z 2312/2412 02008KT 9999 FEW016 SCT290 TEMPO 2312/2318 34004KT FEW016 SCT090 BKN290=

TAF RPMZ

231100Z 2312/2412 24006KT 9999 FEW017 TEMPO 2312/2318 27008KT FEW017 SCT090 TEMPO 2318/2324 VRB03KT=



RPLL FORECAST TAKE-OFF CONDITION
TIME

(UTC)

WIND

(dddffKT)

TEMP

(°C)

QNH

(hPa)

TIME

(UTC)

WIND

(dddffKT)

TEMP

(°C)

QNH

(hPa)

1200

11008KT

28.5

1011.5

1600

12010KT

27.5

1012.5

1300

11011KT

28.0

1012.0

1700

11010KT

27.0

1012.0

1400

12012KT

28.0

1012.5

1800

11008KT

27.0

1011.5

1500

12012KT

27.5

1013.0

1900

12008KT

26.5

1011.0



ISSUED AT NAIA AMSS-WD/PAGASA-DOST FOR 1100UTC 23 MARCH 2019

PREPARED BY:   AYN                                   CHECKED BY:  CHH